This is the latest recevied weather packets stored in our database for station/object KI6UAP-10. If no packets are shown the sender has not sent any weather packets the latest 10 day(s).
| Time | Temp. | Humidity | Pressure | Rain* | Wind** | Luminosity | Snow |
|---|---|---|---|---|---|---|---|
| 1777672271 | 28.89° C | 90% | 0 hPa | - | - | - | - |
| 1777671371 | 29.44° C | 92% | 0 hPa | - | - | - | - |
| 1777671350 | 29.44° C | 92% | 0 hPa | - | - | - | - |
| 1777671319 | 29.44° C | 92% | 0 hPa | - | - | - | - |
| 1777670419 | 30° C | 92% | 0 hPa | - | - | - | - |
| 1777670179 | 30.56° C | 93% | 0 hPa | - | - | - | - |
| 1777670159 | 30.56° C | 93% | 0 hPa | - | - | - | - |
| 1777670141 | 30.56° C | 92% | 0 hPa | - | - | - | - |
| 1777669802 | 30.56° C | 93% | 0 hPa | - | - | - | - |
| 1777669786 | 31.11° C | 93% | 0 hPa | - | - | - | - |
| 1777668886 | 33.33° C | 93% | 0 hPa | - | - | - | - |
| 1777668778 | 33.89° C | 92% | 0 hPa | - | - | - | - |
| 1777667878 | 44.44° C | 79% | 0 hPa | - | - | - | - |
| 1777666978 | 45° C | 78% | 0 hPa | - | - | - | - |
| 1777666078 | 44.44° C | 79% | 0 hPa | - | - | - | - |
| 1777665178 | 43.89° C | 79% | 0 hPa | - | - | - | - |
| 1777664277 | 43.33° C | 79% | 0 hPa | - | - | - | - |
| 1777663377 | 41.67° C | 81% | 0 hPa | - | - | - | - |
| 1777662477 | 40° C | 81% | 0 hPa | - | - | - | - |
| 1777661577 | 38.33° C | 83% | 0 hPa | - | - | - | - |
| 1777660677 | 38.33° C | 85% | 0 hPa | - | - | - | - |
| 1777659777 | 36.11° C | 88% | 0 hPa | - | - | - | - |
| 1777658876 | 33.33° C | 90% | 0 hPa | - | - | - | - |
| 1777657977 | 28.33° C | 96% | 0 hPa | - | - | - | - |
| 1777657075 | 25.56° C | 100% | 0 hPa | - | - | - | - |
* Rain since midnight (hover to see other rain measurements)
** Current wind speed in m/s (hover to see current wind gust speed)